Time;durP1;ratioP1;P1;durP2;ratioP2;P2;SDS_P1;SDS_P2;PMS_P1;PMS_P2;Temp;Humidity;BMP_temperature;BMP_pressure;BME280_temperature;BME280_humidity;BME280_pressure;Samples;Min_cycle;Max_cycle;Signal;HPM_P1;HPM_P2
2022/05/28 00:01:18;;;;;;;11.18;3.30;;;;;;;10.12;67.59;102150.47;6275855;22;20020;-81
2022/05/28 00:03:44;;;;;;;9.32;3.20;;;;;;;10.15;67.34;102148.50;6275562;22;19993;-82
2022/05/28 00:06:12;;;;;;;9.63;3.05;;;;;;;10.11;67.49;102143.47;6275372;22;20000;-83
2022/05/28 00:08:38;;;;;;;12.35;3.53;;;;;;;10.11;67.60;102141.69;6275604;22;19992;-82
2022/05/28 00:11:14;;;;;;;8.13;3.13;;;;;;;10.06;67.34;102140.19;6275424;22;20075;-80
2022/05/28 00:13:39;;;;;;;16.60;4.30;;;;;;;10.06;67.77;102138.41;6275411;22;19999;-81
2022/05/28 00:16:05;;;;;;;10.77;3.13;;;;;;;10.04;67.91;102132.31;6275323;22;20000;-80
2022/05/28 00:18:31;;;;;;;12.52;3.72;;;;;;;10.04;67.73;102137.63;6249374;22;19993;-82
2022/05/28 00:20:57;;;;;;;12.02;3.33;;;;;;;9.97;68.93;102134.44;6275392;22;19992;-83
2022/05/28 00:23:22;;;;;;;11.30;3.88;;;;;;;10.00;68.48;102128.97;6275243;22;20008;-82
2022/05/28 00:25:48;;;;;;;9.23;3.45;;;;;;;9.98;68.37;102127.34;6275246;22;19995;-81
2022/05/28 00:28:14;;;;;;;10.63;3.28;;;;;;;9.97;68.83;102130.94;6275335;22;20002;-82
2022/05/28 00:30:41;;;;;;;11.77;3.50;;;;;;;9.94;69.48;102131.09;6275407;22;20036;-82
2022/05/28 00:33:07;;;;;;;14.70;4.40;;;;;;;9.98;69.26;102124.69;6274427;22;19992;-82
2022/05/28 00:35:32;;;;;;;17.48;4.70;;;;;;;9.95;69.79;102125.69;6274665;22;20015;-82
2022/05/28 00:37:57;;;;;;;14.20;4.43;;;;;;;9.99;70.24;102118.44;6249040;22;20011;-82
2022/05/28 00:40:24;;;;;;;9.57;3.78;;;;;;;9.98;70.03;102114.06;6275121;22;19992;-82
2022/05/28 00:42:50;;;;;;;18.35;4.88;;;;;;;9.96;70.18;102113.31;6274823;22;20032;-81
2022/05/28 00:45:16;;;;;;;14.30;4.10;;;;;;;9.98;70.26;102114.06;6275106;22;19995;-82
2022/05/28 00:47:47;;;;;;;13.75;4.47;;;;;;;10.00;70.00;102115.69;6274981;22;20019;-81
2022/05/28 00:50:14;;;;;;;14.88;3.85;;;;;;;10.02;70.41;102120.91;6274941;22;20018;-82
2022/05/28 00:52:40;;;;;;;12.60;4.38;;;;;;;10.03;70.92;102117.34;6274964;22;20014;-82
2022/05/28 00:55:06;;;;;;;14.32;4.18;;;;;;;10.06;70.54;102119.81;6274947;22;20011;-83
2022/05/28 00:57:31;;;;;;;17.15;4.57;;;;;;;10.06;70.82;102114.53;6274491;22;19984;-82
2022/05/28 00:59:57;;;;;;;17.27;4.40;;;;;;;10.07;70.37;102112.72;6273462;22;19996;-83
2022/05/28 01:02:45;;;;;;;15.00;4.18;;;;;;;10.06;70.11;102113.63;6272875;22;20237;-83
2022/05/28 01:05:13;;;;;;;16.40;4.73;;;;;;;10.04;70.54;102120.84;6248793;22;19992;-82
2022/05/28 01:08:00;;;;;;;16.70;4.70;;;;;;;10.06;69.41;102114.53;6273029;22;20227;-82
2022/05/28 01:10:40;;;;;;;17.98;4.53;;;;;;;10.04;70.17;102112.88;6273235;22;19996;-82
2022/05/28 01:13:13;;;;;;;17.30;4.90;;;;;;;10.00;70.02;102104.22;6272905;22;20004;-82
2022/05/28 01:15:46;;;;;;;12.88;4.15;;;;;;;10.01;70.04;102103.31;6274241;22;19992;-82
2022/05/28 01:18:18;;;;;;;20.05;4.57;;;;;;;9.99;70.55;102098.06;6274910;22;20008;-82
2022/05/28 01:20:50;;;;;;;13.52;4.57;;;;;;;10.03;70.24;102100.56;6274764;22;19996;-82
2022/05/28 01:23:26;;;;;;;16.20;4.55;;;;;;;10.00;69.71;102097.09;6274841;22;20014;-82
2022/05/28 01:26:12;;;;;;;16.25;4.72;;;;;;;10.00;69.49;102097.09;6274628;22;20004;-82
2022/05/28 01:28:47;;;;;;;19.02;4.82;;;;;;;9.97;70.52;102093.78;6274801;22;19996;-82
2022/05/28 01:31:15;;;;;;;12.35;4.50;;;;;;;9.98;70.25;102100.81;6274815;22;20111;-82
2022/05/28 01:33:43;;;;;;;11.85;4.25;;;;;;;9.98;70.56;102098.16;6274484;22;20016;-82
2022/05/28 01:36:11;;;;;;;14.82;4.40;;;;;;;9.93;70.76;102098.38;6274652;22;19997;-83
2022/05/28 01:38:39;;;;;;;18.88;5.00;;;;;;;9.94;70.92;102099.25;6274534;22;20019;-81
2022/05/28 01:41:07;;;;;;;10.98;4.07;;;;;;;9.92;70.85;102090.50;6274528;22;20059;-82
2022/05/28 01:43:40;;;;;;;14.55;4.20;;;;;;;9.89;70.98;102096.84;6274264;22;20021;-82
2022/05/28 01:46:06;;;;;;;15.30;4.18;;;;;;;9.88;70.76;102087.16;6274649;22;20026;-82
2022/05/28 01:48:33;;;;;;;11.38;4.32;;;;;;;9.85;71.44;102086.47;6274458;22;19996;-82
2022/05/28 01:51:01;;;;;;;13.30;4.43;;;;;;;9.83;71.85;102089.22;6274520;22;19988;-82
2022/05/28 01:56:12;;;;;;;15.48;4.32;;;;;;;9.81;71.64;102091.94;6274993;22;20003;-82
2022/05/28 01:58:37;;;;;;;16.90;4.57;;;;;;;9.85;71.77;102086.47;6274339;22;20004;-82
2022/05/28 02:01:05;;;;;;;15.38;3.88;;;;;;;9.85;72.06;102082.03;6274450;22;19999;-82
2022/05/28 02:03:32;;;;;;;10.93;3.88;;;;;;;9.83;71.89;102086.56;6274423;22;19989;-83
2022/05/28 02:05:58;;;;;;;15.23;4.40;;;;;;;9.83;72.25;102091.88;6274232;22;20027;-82
2022/05/28 02:08:24;;;;;;;9.70;3.70;;;;;;;9.79;72.67;102092.94;6274479;22;20032;-81
2022/05/28 02:11:23;;;;;;;15.88;4.35;;;;;;;9.79;72.13;102088.53;6274677;22;20047;-82
2022/05/28 02:14:17;;;;;;;14.10;4.70;;;;;;;9.79;72.42;102101.78;6268336;22;19996;-82
2022/05/28 02:17:03;;;;;;;12.65;4.28;;;;;;;9.78;72.68;102089.44;6274505;22;20008;-83
2022/05/28 02:19:43;;;;;;;11.80;4.88;;;;;;;9.74;72.43;102098.53;6274541;22;19984;-82
2022/05/28 02:22:12;;;;;;;;;;;;;;;9.84;70.25;102093.56;6276683;22;19996;-82
2022/05/28 02:24:44;;;;;;;17.42;4.60;;;;;;;9.72;71.74;102088.91;6276549;22;19900;-81
2022/05/28 02:27:16;;;;;;;15.27;4.93;;;;;;;9.72;72.51;102089.78;6276706;22;20002;-83
2022/05/28 02:29:42;;;;;;;14.20;4.40;;;;;;;9.69;73.23;102087.31;6276414;22;19992;-83
2022/05/28 02:32:20;;;;;;;14.48;5.00;;;;;;;9.67;72.90;102091.81;6276550;22;19988;-82
2022/05/28 02:34:45;;;;;;;12.25;4.65;;;;;;;9.67;72.90;102090.97;6276509;22;20006;-82
2022/05/28 02:37:15;;;;;;;13.75;4.30;;;;;;;9.63;73.42;102085.81;6276368;22;19988;-82
2022/05/28 02:39:41;;;;;;;16.42;4.55;;;;;;;9.62;73.39;102080.59;6276550;22;19999;-80
2022/05/28 02:42:07;;;;;;;13.85;3.92;;;;;;;9.61;73.71;102084.19;6276303;22;19989;-82
2022/05/28 02:44:32;;;;;;;14.25;4.72;;;;;;;9.57;74.12;102083.47;6276267;22;20002;-82
2022/05/28 02:46:57;;;;;;;11.57;4.32;;;;;;;9.57;74.04;102083.47;6276119;22;20039;-82
2022/05/28 02:49:23;;;;;;;14.40;4.53;;;;;;;9.58;73.72;102082.56;6276248;22;19992;-81
2022/05/28 02:51:49;;;;;;;13.70;4.30;;;;;;;9.57;73.71;102080.81;6276160;22;20023;-82
2022/05/28 02:54:14;;;;;;;11.27;4.28;;;;;;;9.55;73.80;102076.56;6275822;22;20007;-82
2022/05/28 02:56:40;;;;;;;15.13;4.35;;;;;;;9.56;74.12;102067.63;6276056;22;20022;-81
2022/05/28 02:59:05;;;;;;;15.18;4.90;;;;;;;9.54;74.63;102070.41;6276146;22;19995;-81
2022/05/28 03:01:33;;;;;;;12.80;4.28;;;;;;;9.53;74.77;102073.13;6276159;22;19996;-81
2022/05/28 03:03:59;;;;;;;15.80;4.82;;;;;;;9.52;75.22;102063.44;6276068;22;20011;-81
2022/05/28 03:06:25;;;;;;;16.25;4.03;;;;;;;9.55;75.02;102071.25;6275665;22;20004;-80
2022/05/28 03:08:50;;;;;;;14.52;4.25;;;;;;;9.51;75.39;102067.03;6250103;22;19993;-82
2022/05/28 03:11:15;;;;;;;13.02;3.70;;;;;;;9.53;75.44;102062.53;6276239;22;19992;-81
2022/05/28 03:13:41;;;;;;;12.93;3.65;;;;;;;9.55;75.18;102065.94;6275683;22;19999;-82
2022/05/28 03:16:07;;;;;;;16.77;4.03;;;;;;;9.54;75.76;102065.09;6276117;22;19992;-82
2022/05/28 03:18:33;;;;;;;13.02;3.70;;;;;;;9.55;76.20;102068.59;6275815;22;19998;-82
2022/05/28 03:20:58;;;;;;;14.75;4.10;;;;;;;9.53;76.38;102063.38;6275826;22;20016;-82
2022/05/28 03:23:23;;;;;;;14.43;3.95;;;;;;;9.56;75.65;102065.88;6275711;22;19988;-81
2022/05/28 03:25:49;;;;;;;13.93;3.65;;;;;;;9.56;75.76;102065.88;6248789;22;20060;-82
2022/05/28 03:28:14;;;;;;;16.58;4.13;;;;;;;9.54;76.17;102074.81;6275667;22;20000;-82
2022/05/28 03:30:39;;;;;;;14.93;4.35;;;;;;;9.53;76.60;102065.19;6276015;22;19997;-81
2022/05/28 03:33:05;;;;;;;16.63;3.95;;;;;;;9.54;75.87;102070.41;6275558;22;20015;-81
2022/05/28 03:35:30;;;;;;;10.93;4.20;;;;;;;9.54;76.16;102075.72;6275749;22;19992;-82
2022/05/28 03:37:55;;;;;;;12.50;4.10;;;;;;;9.52;76.37;102072.25;6249851;23;19999;-82
2022/05/28 03:40:21;;;;;;;12.90;4.70;;;;;;;9.50;76.49;102079.44;6275897;22;19988;-81
2022/05/28 03:42:46;;;;;;;14.32;3.92;;;;;;;9.48;76.03;102075.16;6275932;22;19996;-81
2022/05/28 03:45:11;;;;;;;13.27;3.83;;;;;;;9.46;76.00;102075.25;6275880;22;19988;-80
2022/05/28 03:47:37;;;;;;;12.27;4.10;;;;;;;9.47;75.88;102076.09;6275899;22;19996;-81
2022/05/28 03:50:03;;;;;;;12.35;3.95;;;;;;;9.42;76.92;102085.13;6275571;22;20027;-82
2022/05/28 03:52:28;;;;;;;9.98;3.85;;;;;;;9.43;76.68;102078.91;6275716;22;20019;-81
2022/05/28 03:54:54;;;;;;;16.73;4.00;;;;;;;9.43;76.58;102075.41;6275690;22;20012;-81
2022/05/28 03:57:29;;;;;;;14.50;3.90;;;;;;;9.42;77.27;102084.28;6275599;22;19996;-82
2022/05/28 03:59:54;;;;;;;9.18;4.38;;;;;;;9.44;76.70;102093.00;6275379;22;19992;-82
2022/05/28 04:02:20;;;;;;;13.48;3.88;;;;;;;9.44;77.88;102085.94;6275477;22;20007;-82
2022/05/28 04:04:46;;;;;;;17.08;3.85;;;;;;;9.47;77.74;102087.56;6275605;22;20050;-81
2022/05/28 04:07:13;;;;;;;11.60;3.78;;;;;;;9.47;77.99;102087.56;6275478;22;20012;-81
2022/05/28 04:09:38;;;;;;;15.23;3.92;;;;;;;9.47;78.29;102094.66;6275340;22;20008;-82
2022/05/28 04:12:04;;;;;;;13.05;3.80;;;;;;;9.49;78.00;102090.97;6275459;22;19990;-81
2022/05/28 04:14:29;;;;;;;12.88;3.95;;;;;;;9.51;77.32;102093.56;6275326;22;20000;-81
2022/05/28 04:16:54;;;;;;;9.40;3.45;;;;;;;9.55;77.43;102092.47;6275454;22;20016;-82
2022/05/28 04:19:20;;;;;;;14.40;4.78;;;;;;;9.54;78.36;102088.97;6275368;22;19992;-82
2022/05/28 04:21:45;;;;;;;18.60;3.80;;;;;;;9.56;77.97;102092.38;6275391;22;20002;-80
2022/05/28 04:24:11;;;;;;;13.60;3.80;;;;;;;9.57;78.58;102095.88;6275309;22;19995;-81
2022/05/28 04:26:36;;;;;;;12.27;4.03;;;;;;;9.59;78.38;102092.25;6275310;22;20026;-81
2022/05/28 04:29:02;;;;;;;12.98;3.60;;;;;;;9.62;78.76;102093.84;6275411;22;20012;-81
2022/05/28 04:31:27;;;;;;;14.02;4.10;;;;;;;9.64;79.25;102097.28;6275090;22;19992;-81
2022/05/28 04:33:53;;;;;;;15.45;3.78;;;;;;;9.68;78.85;102103.31;6274976;22;20012;-79
2022/05/28 04:36:18;;;;;;;11.68;3.65;;;;;;;9.71;79.12;102100.47;6275314;22;20022;-81
2022/05/28 04:38:44;;;;;;;14.10;3.83;;;;;;;9.76;79.47;102095.78;6275287;22;19992;-80
2022/05/28 04:41:09;;;;;;;16.20;4.03;;;;;;;9.80;79.89;102095.53;6274937;22;20008;-81
2022/05/28 04:43:35;;;;;;;14.25;3.22;;;;;;;9.86;79.46;102102.31;6274596;22;20012;-81
2022/05/28 04:46:00;;;;;;;15.07;3.80;;;;;;;9.92;80.06;102103.78;6249129;22;19996;-80
2022/05/28 04:48:26;;;;;;;13.43;4.03;;;;;;;9.98;80.16;102106.97;6275075;22;19992;-81
2022/05/28 04:50:51;;;;;;;12.43;3.53;;;;;;;10.08;80.03;102101.16;6274904;22;20040;-82
2022/05/28 04:53:16;;;;;;;16.77;4.05;;;;;;;10.19;79.64;102101.41;6274872;22;20031;-81
2022/05/28 04:55:44;;;;;;;10.30;3.58;;;;;;;10.30;79.95;102107.00;6274799;22;19996;-81
2022/05/28 04:58:11;;;;;;;16.30;3.67;;;;;;;10.39;79.87;102105.66;6273618;22;20004;-81
2022/05/28 05:00:36;;;;;;;15.13;3.70;;;;;;;10.52;79.78;102105.84;6273880;22;20022;-82
2022/05/28 05:03:01;;;;;;;14.27;3.75;;;;;;;10.66;78.87;102110.38;6274212;22;19992;-82
2022/05/28 05:05:27;;;;;;;16.77;3.80;;;;;;;10.76;78.77;102113.34;6273982;22;20022;-82
2022/05/28 05:07:52;;;;;;;18.25;4.07;;;;;;;10.84;78.51;102116.44;6274411;22;19992;-81
2022/05/28 05:10:18;;;;;;;14.40;3.80;;;;;;;10.91;78.60;102112.50;6274290;22;20008;-83
2022/05/28 05:12:43;;;;;;;13.98;3.47;;;;;;;10.99;78.41;102112.91;6247454;23;20001;-82
2022/05/28 05:15:09;;;;;;;14.60;3.87;;;;;;;11.04;78.09;102116.16;6274630;22;19988;-82
2022/05/28 05:17:34;;;;;;;12.23;3.45;;;;;;;11.09;78.15;102115.88;6248940;22;20250;-82
2022/05/28 05:19:59;;;;;;;14.97;3.10;;;;;;;11.13;78.15;102122.72;6274542;22;20030;-82
2022/05/28 05:22:24;;;;;;;14.18;3.60;;;;;;;11.22;77.78;102124.00;6274937;22;20263;-82
2022/05/28 05:24:53;;;;;;;20.52;4.00;;;;;;;11.29;78.10;102125.31;6274788;22;20063;-81
2022/05/28 05:27:18;;;;;;;12.18;3.47;;;;;;;11.40;78.63;102124.72;6274757;22;19991;-81
2022/05/28 05:29:43;;;;;;;13.60;3.42;;;;;;;11.55;77.55;102123.78;6274690;22;19996;-82
2022/05/28 05:32:09;;;;;;;17.95;3.70;;;;;;;11.76;77.32;102126.97;6274606;22;19992;-82
2022/05/28 05:34:37;;;;;;;12.50;2.70;;;;;;;11.97;76.39;102122.16;6274604;22;20015;-82
2022/05/28 05:37:03;;;;;;;9.50;2.75;;;;;;;12.23;74.94;102132.13;6248421;22;20024;-81
2022/05/28 05:39:28;;;;;;;11.50;2.90;;;;;;;12.42;74.53;102129.13;6274654;22;19996;-82
2022/05/28 05:41:56;;;;;;;11.13;2.70;;;;;;;12.67;74.13;102133.75;6274376;22;19999;-82
2022/05/28 05:44:21;;;;;;;11.27;2.70;;;;;;;12.90;72.88;102138.41;6274055;22;20044;-81
2022/05/28 05:46:47;;;;;;;16.85;2.40;;;;;;;13.09;71.87;102127.41;6269010;22;20012;-81
2022/05/28 05:49:12;;;;;;;10.50;2.30;;;;;;;13.30;70.37;102138.44;6242288;23;20010;-82
2022/05/28 05:51:44;;;;;;;14.50;2.90;;;;;;;13.46;69.19;102130.28;6266162;22;20034;-82
2022/05/28 05:54:10;;;;;;;6.10;1.80;;;;;;;13.69;68.63;102134.03;6269172;23;20004;-81
2022/05/28 05:56:36;;;;;;;8.57;1.90;;;;;;;13.88;67.51;102140.75;6243326;23;20008;-82
2022/05/28 05:59:01;;;;;;;7.97;1.92;;;;;;;14.05;66.68;102135.09;6273731;22;20060;-81
2022/05/28 06:01:27;;;;;;;10.02;2.15;;;;;;;14.21;65.52;102144.69;6272523;22;20011;-79
2022/05/28 06:03:52;;;;;;;9.63;1.90;;;;;;;14.30;65.79;102135.16;6244397;23;20008;-80
2022/05/28 06:06:19;;;;;;;9.82;1.80;;;;;;;14.47;65.05;102141.94;6266097;22;20025;-81
2022/05/28 06:08:45;;;;;;;8.30;2.03;;;;;;;14.68;64.17;102139.56;6244125;23;20009;-80
2022/05/28 06:11:11;;;;;;;7.07;1.70;;;;;;;14.84;62.77;102139.28;6267894;22;20015;-80
2022/05/28 06:13:36;;;;;;;8.82;2.08;;;;;;;14.85;61.54;102141.84;6261236;23;20356;-80
2022/05/28 06:16:02;;;;;;;12.68;2.63;;;;;;;14.84;62.63;102137.47;6256993;23;20000;-81
2022/05/28 06:18:28;;;;;;;6.63;1.55;;;;;;;14.91;61.18;102138.72;6258088;23;20345;-81
2022/05/28 06:20:54;;;;;;;8.30;1.77;;;;;;;14.95;61.52;102140.22;6228609;23;20005;-80
2022/05/28 06:23:19;;;;;;;8.45;1.85;;;;;;;15.08;60.61;102140.13;6260688;23;20008;-81
2022/05/28 06:25:45;;;;;;;8.20;1.70;;;;;;;15.36;60.74;102141.56;6254089;23;20027;-81
2022/05/28 06:28:11;;;;;;;10.25;2.53;;;;;;;15.49;57.93;102146.00;6261636;23;20015;-82
2022/05/28 06:30:37;;;;;;;5.97;1.50;;;;;;;15.61;57.43;102146.88;6235088;23;20079;-82
2022/05/28 06:33:02;;;;;;;8.82;1.55;;;;;;;15.63;56.78;102140.41;6260767;23;20000;-80
2022/05/28 06:35:32;;;;;;;6.60;1.92;;;;;;;15.66;56.14;102147.38;6232534;23;20414;-82
2022/05/28 06:37:58;;;;;;;6.78;1.98;;;;;;;15.69;55.14;102152.50;6227371;23;20004;-81
2022/05/28 06:40:24;;;;;;;7.45;1.80;;;;;;;15.87;55.02;102150.22;6255268;23;20008;-80
2022/05/28 06:42:51;;;;;;;9.43;1.67;;;;;;;16.02;54.49;102148.16;6258569;23;19992;-81
2022/05/28 06:45:16;;;;;;;5.40;1.58;;;;;;;16.10;53.71;102143.06;6249563;23;20063;-81
2022/05/28 06:47:43;;;;;;;9.25;1.70;;;;;;;16.21;53.52;102150.25;6239371;23;20032;-81
2022/05/28 06:52:54;;;;;;;7.72;1.65;;;;;;;16.17;51.90;102160.38;6268682;22;20019;-81
2022/05/28 06:55:19;;;;;;;7.07;1.65;;;;;;;16.14;51.55;102157.06;6266149;22;20020;-80
2022/05/28 06:57:45;;;;;;;6.63;1.90;;;;;;;16.19;52.76;102161.09;6269603;22;20004;-81
2022/05/28 07:00:11;;;;;;;6.93;1.30;;;;;;;16.22;51.67;102163.53;6273987;22;20011;-82
2022/05/28 07:02:36;;;;;;;7.70;1.63;;;;;;;16.42;52.15;102161.94;6273527;22;19989;-81
2022/05/28 07:05:01;;;;;;;10.82;1.65;;;;;;;16.69;50.27;102163.34;6267936;22;20016;-79
2022/05/28 07:07:27;;;;;;;6.00;1.48;;;;;;;16.94;49.81;102161.38;6268167;22;20098;-81
2022/05/28 07:09:52;;;;;;;8.27;1.70;;;;;;;17.20;49.02;102162.72;6221681;23;20016;-80
2022/05/28 07:12:17;;;;;;;10.47;1.70;;;;;;;17.31;48.00;102171.72;6269484;23;20023;-79
2022/05/28 07:14:42;;;;;;;6.33;1.23;;;;;;;17.08;47.84;102163.75;6273505;22;20242;-82
2022/05/28 07:17:10;;;;;;;5.65;1.63;;;;;;;17.17;47.69;102164.84;6275214;22;20242;-81
2022/05/28 07:19:36;;;;;;;8.10;1.50;;;;;;;17.05;48.51;102161.31;6274833;22;20066;-81
2022/05/28 07:22:01;;;;;;;6.68;1.52;;;;;;;17.15;47.46;102173.00;6274912;22;20000;-82
2022/05/28 07:24:29;;;;;;;7.85;1.50;;;;;;;17.38;47.19;102171.03;6275307;22;20019;-81
2022/05/28 07:26:55;;;;;;;5.53;1.52;;;;;;;17.31;47.60;102169.88;6249412;22;20035;-80
2022/05/28 07:29:20;;;;;;;5.38;1.20;;;;;;;17.43;48.57;102167.13;6247997;22;19992;-81
2022/05/28 07:31:45;;;;;;;4.55;1.00;;;;;;;17.42;47.71;102160.94;6275370;22;19988;-81
2022/05/28 07:34:12;;;;;;;9.02;1.50;;;;;;;17.68;47.17;102164.03;6274640;22;20000;-78
2022/05/28 07:36:38;;;;;;;5.18;1.30;;;;;;;17.86;45.28;102160.78;6270034;22;20036;-81
2022/05/28 07:39:06;;;;;;;5.05;1.52;;;;;;;17.80;45.12;102174.72;6264611;23;20011;-80
2022/05/28 07:41:32;;;;;;;7.20;1.98;;;;;;;17.75;44.64;102159.88;6273221;22;20030;-81
2022/05/28 07:43:58;;;;;;;7.18;1.38;;;;;;;17.92;46.41;102166.50;6263775;22;19992;-82
2022/05/28 07:46:26;;;;;;;8.85;1.45;;;;;;;17.73;45.42;102169.88;6274574;22;19994;-82
2022/05/28 07:48:54;;;;;;;4.60;1.15;;;;;;;17.86;45.71;102163.47;6275619;22;19992;-81
2022/05/28 07:51:19;;;;;;;6.32;1.60;;;;;;;17.93;45.02;102167.34;6274430;22;19992;-82
2022/05/28 07:53:45;;;;;;;4.00;1.17;;;;;;;18.12;44.82;102161.22;6274041;22;20039;-82
2022/05/28 07:56:11;;;;;;;8.30;1.65;;;;;;;18.04;44.62;102156.50;6274861;22;20015;-82
2022/05/28 07:58:37;;;;;;;4.90;1.30;;;;;;;17.83;44.98;102164.56;6274434;22;19988;-82
2022/05/28 08:01:04;;;;;;;5.88;1.58;;;;;;;17.76;45.81;102164.25;6274288;22;19989;-82
2022/05/28 08:03:30;;;;;;;6.82;1.50;;;;;;;17.56;44.71;102168.63;6246866;22;19996;-82
2022/05/28 08:05:56;;;;;;;23.23;2.58;;;;;;;17.56;44.93;102162.44;6274061;22;20047;-81
2022/05/28 08:08:24;;;;;;;6.47;1.50;;;;;;;17.47;45.86;102165.88;6248001;22;19996;-82
2022/05/28 08:10:51;;;;;;;7.55;1.52;;;;;;;17.36;45.83;102169.50;6248733;22;20047;-82
2022/05/28 08:13:19;;;;;;;8.05;2.28;;;;;;;17.22;46.22;102165.28;6273964;22;19988;-81
2022/05/28 08:15:46;;;;;;;8.75;2.03;;;;;;;17.17;45.93;102162.16;6274854;22;20084;-83
2022/05/28 08:18:14;;;;;;;7.40;1.70;;;;;;;17.42;46.34;102154.69;6273802;22;20000;-82
2022/05/28 08:23:23;;;;;;;8.95;2.15;;;;;;;18.14;45.42;102153.88;6275071;22;20011;-82
2022/05/28 08:25:49;;;;;;;9.27;1.70;;;;;;;18.55;43.77;102148.47;6246858;23;20004;-82
2022/05/28 08:28:16;;;;;;;6.57;1.58;;;;;;;18.99;43.62;102149.84;6240340;23;20008;-80
2022/05/28 08:30:42;;;;;;;5.90;1.08;;;;;;;19.20;43.44;102144.31;6239224;22;20003;-81
2022/05/28 08:33:10;;;;;;;7.63;1.77;;;;;;;19.41;41.17;102135.22;6246466;23;20052;-82
2022/05/28 08:35:37;;;;;;;7.90;1.75;;;;;;;19.63;41.13;102143.97;6242414;23;20038;-81
2022/05/28 08:38:04;;;;;;;6.20;1.45;;;;;;;19.86;40.72;102145.34;6270538;23;20004;-81
2022/05/28 08:40:33;;;;;;;6.65;1.63;;;;;;;20.13;40.90;102147.25;6242331;23;20016;-81
2022/05/28 08:42:58;;;;;;;4.88;1.75;;;;;;;20.20;39.17;102139.41;6239837;23;20008;-82
2022/05/28 08:45:24;;;;;;;7.13;1.40;;;;;;;20.43;39.42;102139.81;6244530;23;20430;-81
2022/05/28 08:47:51;;;;;;;6.43;1.63;;;;;;;20.63;40.10;102139.75;6244718;23;20008;-81
2022/05/28 08:50:16;;;;;;;6.75;1.48;;;;;;;20.62;39.62;102140.72;6235266;23;20035;-80
2022/05/28 08:52:56;;;;;;;8.27;1.80;;;;;;;20.98;39.56;102138.91;6264714;22;20000;-80
2022/05/28 08:55:26;;;;;;;4.32;1.17;;;;;;;20.95;37.60;102138.38;6241804;23;20004;-79
2022/05/28 08:58:09;;;;;;;9.07;2.05;;;;;;;20.84;38.84;102140.31;6245302;23;20099;-82
2022/05/28 09:00:43;;;;;;;5.18;1.23;;;;;;;20.65;39.36;102145.84;6241665;23;20012;-81
2022/05/28 09:03:17;;;;;;;6.65;1.88;;;;;;;20.47;39.83;102138.53;6241496;23;20003;-81
2022/05/28 09:05:57;;;;;;;6.30;1.45;;;;;;;20.48;39.45;102142.06;6239255;23;20012;-80
2022/05/28 09:08:40;;;;;;;6.68;1.90;;;;;;;20.27;40.71;102153.16;6214366;23;20008;-82
2022/05/28 09:11:11;;;;;;;12.45;1.80;;;;;;;19.95;39.65;102149.00;6239248;23;20004;-80
2022/05/28 09:13:45;;;;;;;5.00;1.48;;;;;;;19.86;40.78;102160.69;6270576;22;20022;-82
2022/05/28 09:16:24;;;;;;;4.95;1.33;;;;;;;19.67;41.31;102154.31;6246328;23;20071;-81
2022/05/28 09:18:52;;;;;;;9.82;1.77;;;;;;;19.75;41.06;102149.06;6273514;23;20012;-81
2022/05/28 09:21:18;;;;;;;8.55;1.80;;;;;;;19.91;40.72;102143.06;6246371;22;20003;-80
2022/05/28 09:23:52;;;;;;;6.72;1.55;;;;;;;20.20;40.82;102136.72;6246467;23;20008;-80
2022/05/28 09:26:28;;;;;;;8.02;1.60;;;;;;;20.73;38.87;102140.53;6247730;23;19988;-80
2022/05/28 09:29:15;;;;;;;9.07;1.73;;;;;;;21.12;39.60;102142.09;6271611;23;20008;-80
2022/05/28 09:31:49;;;;;;;7.22;1.58;;;;;;;21.60;38.52;102140.81;6272633;23;19996;-80
2022/05/28 09:34:27;;;;;;;8.77;1.88;;;;;;;21.85;38.28;102139.09;6271004;23;19988;-79
2022/05/28 09:37:16;;;;;;;5.68;1.67;;;;;;;21.73;37.31;102133.13;6264402;23;20001;-80
2022/05/28 09:40:03;;;;;;;9.50;1.70;;;;;;;21.71;38.84;102129.69;6266017;23;20038;-81
2022/05/28 09:42:52;;;;;;;6.25;1.50;;;;;;;21.63;37.33;102137.75;6268356;23;20022;-81
2022/05/28 09:45:29;;;;;;;;;;;;;;;21.87;39.78;102142.47;6270655;23;19996;-81
2022/05/28 09:47:54;;;;;;;4.20;1.30;;;;;;;21.24;35.84;102138.13;6269679;23;19898;-81
2022/05/28 09:50:27;;;;;;;8.40;1.67;;;;;;;20.77;36.50;102133.00;6243760;23;20004;-80
2022/05/28 09:55:57;;;;;;;6.10;1.50;;;;;;;20.80;36.88;102138.06;6272019;23;20003;-80
2022/05/28 09:58:27;;;;;;;6.10;1.55;;;;;;;21.06;36.82;102128.19;6244367;23;20004;-80
2022/05/28 10:01:03;;;;;;;7.65;1.65;;;;;;;21.13;37.52;102136.50;6272066;22;20055;-80
2022/05/28 10:06:24;;;;;;;8.32;1.98;;;;;;;21.59;36.25;102129.13;6269241;23;20039;-80
2022/05/28 10:08:49;;;;;;;8.13;1.75;;;;;;;22.16;36.10;102117.75;6268003;23;20023;-81
2022/05/28 10:11:22;;;;;;;5.97;1.50;;;;;;;22.13;35.16;102115.41;6266873;23;19996;-80
2022/05/28 10:13:57;;;;;;;7.03;1.77;;;;;;;22.21;36.41;102119.97;6270219;23;20305;-80
2022/05/28 10:16:25;;;;;;;12.93;1.73;;;;;;;22.13;35.01;102123.50;6234420;23;20004;-80
2022/05/28 10:18:55;;;;;;;6.70;1.80;;;;;;;21.71;34.54;102134.28;6256219;23;20032;-80
2022/05/28 10:21:37;;;;;;;6.05;1.60;;;;;;;21.98;36.72;102117.00;6232385;23;20000;-81
2022/05/28 10:24:16;;;;;;;5.65;1.88;;;;;;;22.18;34.90;102121.16;6233139;23;20054;-80
2022/05/28 10:26:58;;;;;;;5.57;1.83;;;;;;;22.52;35.46;102116.72;6259515;23;20012;-81
2022/05/28 10:29:38;;;;;;;5.95;1.88;;;;;;;22.77;33.86;102111.38;6258583;23;20010;-80
2022/05/28 10:32:33;;;;;;;5.93;1.70;;;;;;;22.83;33.07;102107.97;6263913;23;20052;-81
2022/05/28 10:35:02;;;;;;;6.32;1.70;;;;;;;22.71;33.15;102113.69;6259603;23;20000;-82
2022/05/28 10:37:28;;;;;;;7.68;1.80;;;;;;;22.31;31.74;102119.88;6255420;23;20012;-82
2022/05/28 10:40:09;;;;;;;8.20;1.63;;;;;;;21.98;33.54;102117.88;6258108;23;20003;-83
2022/05/28 10:42:35;;;;;;;7.03;1.40;;;;;;;21.81;31.95;102129.59;6262704;23;20008;-82
2022/05/28 10:45:00;;;;;;;3.53;1.30;;;;;;;21.91;31.79;102114.09;6264876;23;20087;-82
2022/05/28 10:48:01;;;;;;;6.28;1.30;;;;;;;22.14;31.76;102110.81;6266658;23;20005;-80
2022/05/28 10:50:56;;;;;;;6.18;1.23;;;;;;;22.49;32.04;102106.22;6190287;23;20035;-81
2022/05/28 10:53:30;;;;;;;5.20;1.52;;;;;;;22.70;31.07;102112.03;6268160;22;20008;-81
2022/05/28 10:56:11;;;;;;;5.93;1.30;;;;;;;22.52;31.41;102112.16;6265056;23;20341;-80
2022/05/28 10:58:50;;;;;;;6.50;1.63;;;;;;;22.63;31.00;102111.00;6258267;23;20008;-83
2022/05/28 11:01:50;;;;;;;6.60;1.60;;;;;;;22.79;32.44;102112.03;6264006;22;20015;-82
2022/05/28 11:04:48;;;;;;;4.68;1.42;;;;;;;22.69;31.92;102104.91;6268565;22;20027;-79
2022/05/28 11:07:19;;;;;;;5.65;1.27;;;;;;;22.82;31.88;102103.59;6271890;23;20060;-80
2022/05/28 11:10:09;;;;;;;6.28;1.60;;;;;;;22.89;31.59;102101.88;6266633;22;20015;-81
2022/05/28 11:12:57;;;;;;;6.22;1.55;;;;;;;22.67;32.06;102119.66;6248447;23;20004;-80
2022/05/28 11:15:57;;;;;;;8.70;1.93;;;;;;;22.49;32.59;102109.78;6248029;23;20453;-80
2022/05/28 11:18:38;;;;;;;5.85;1.70;;;;;;;22.48;31.82;102104.53;6238913;23;20083;-80
2022/05/28 11:21:33;;;;;;;3.40;1.23;;;;;;;22.76;31.63;102088.00;6248462;23;20134;-80
2022/05/28 11:24:04;;;;;;;3.38;1.30;;;;;;;22.78;28.17;102096.78;6247130;23;20035;-80
2022/05/28 11:26:39;;;;;;;4.10;0.85;;;;;;;22.83;27.55;102097.13;6249082;23;20000;-81
2022/05/28 11:29:35;;;;;;;4.28;1.48;;;;;;;22.81;28.66;102099.16;6249317;23;20005;-81
2022/05/28 11:32:05;;;;;;;5.43;1.70;;;;;;;23.10;30.22;102098.72;6248049;23;20004;-80
2022/05/28 11:34:33;;;;;;;5.38;1.60;;;;;;;23.06;28.83;102084.63;6249480;23;20007;-81
2022/05/28 11:37:08;;;;;;;4.68;1.20;;;;;;;23.40;27.95;102089.03;6249973;23;20031;-80
2022/05/28 11:39:48;;;;;;;3.15;0.90;;;;;;;23.62;29.73;102083.88;6249691;23;20354;-80
2022/05/28 11:42:29;;;;;;;6.50;1.27;;;;;;;23.76;28.62;102085.84;6250469;23;20008;-81
2022/05/28 11:44:56;;;;;;;6.53;1.30;;;;;;;23.75;28.52;102083.34;6249851;23;20085;-81
2022/05/28 11:47:36;;;;;;;3.67;1.30;;;;;;;23.81;29.30;102082.63;6249597;23;20080;-81
2022/05/28 11:53:09;;;;;;;6.32;1.30;;;;;;;23.81;27.72;102080.78;6249301;22;20498;-81